sensor_id;sensor_type;location;lat;lon;timestamp;pressure;altitude;pressure_sealevel;temperature;humidity
58979;BME280;44763;50.464;30.612;2023-08-12T00:00:23;100323.40;;;19.40;91.96
58979;BME280;44763;50.464;30.612;2023-08-12T00:02:25;100322.73;;;19.38;92.01
58979;BME280;44763;50.464;30.612;2023-08-12T00:04:27;100320.98;;;19.38;91.69
58979;BME280;44763;50.464;30.612;2023-08-12T00:06:29;100320.48;;;19.34;92.12
58979;BME280;44763;50.464;30.612;2023-08-12T00:08:31;100323.81;;;19.29;92.41
58979;BME280;44763;50.464;30.612;2023-08-12T00:10:33;100320.33;;;19.27;92.72
58979;BME280;44763;50.464;30.612;2023-08-12T00:12:35;100317.08;;;19.23;92.69
58979;BME280;44763;50.464;30.612;2023-08-12T00:14:37;100320.46;;;19.22;92.82
58979;BME280;44763;50.464;30.612;2023-08-12T00:16:39;100314.62;;;19.18;93.27
58979;BME280;44763;50.464;30.612;2023-08-12T00:18:40;100318.26;;;19.19;93.42
58979;BME280;44763;50.464;30.612;2023-08-12T00:20:42;100315.48;;;19.20;93.16
58979;BME280;44763;50.464;30.612;2023-08-12T00:22:44;100317.11;;;19.18;93.19
58979;BME280;44763;50.464;30.612;2023-08-12T00:24:46;100318.90;;;19.15;93.47
58979;BME280;44763;50.464;30.612;2023-08-12T00:26:47;100313.18;;;19.12;93.52
58979;BME280;44763;50.464;30.612;2023-08-12T00:28:49;100311.24;;;19.08;93.83
58979;BME280;44763;50.464;30.612;2023-08-12T00:30:51;100315.27;;;19.07;93.94
58979;BME280;44763;50.464;30.612;2023-08-12T00:32:53;100308.21;;;19.05;94.06
58979;BME280;44763;50.464;30.612;2023-08-12T00:34:55;100308.56;;;19.04;94.18
58979;BME280;44763;50.464;30.612;2023-08-12T00:36:57;100306.58;;;19.01;94.25
58979;BME280;44763;50.464;30.612;2023-08-12T00:39:00;100307.58;;;19.00;94.35
58979;BME280;44763;50.464;30.612;2023-08-12T00:41:04;100309.28;;;18.98;94.54
58979;BME280;44763;50.464;30.612;2023-08-12T00:43:06;100312.96;;;18.99;94.56
58979;BME280;44763;50.464;30.612;2023-08-12T00:45:10;100313.36;;;18.96;94.92
58979;BME280;44763;50.464;30.612;2023-08-12T00:47:15;100312.68;;;18.95;94.93
58979;BME280;44763;50.464;30.612;2023-08-12T00:49:17;100311.55;;;18.95;94.91
58979;BME280;44763;50.464;30.612;2023-08-12T00:51:20;100309.48;;;18.95;95.03
58979;BME280;44763;50.464;30.612;2023-08-12T00:53:22;100313.83;;;18.96;94.85
58979;BME280;44763;50.464;30.612;2023-08-12T00:55:24;100315.13;;;18.95;94.56
58979;BME280;44763;50.464;30.612;2023-08-12T00:57:26;100317.09;;;18.94;94.79
58979;BME280;44763;50.464;30.612;2023-08-12T00:59:28;100316.70;;;18.93;94.61
58979;BME280;44763;50.464;30.612;2023-08-12T01:01:33;100316.58;;;18.92;94.53
58979;BME280;44763;50.464;30.612;2023-08-12T01:03:37;100319.34;;;18.93;94.31
58979;BME280;44763;50.464;30.612;2023-08-12T01:05:40;100315.98;;;18.91;94.41
58979;BME280;44763;50.464;30.612;2023-08-12T01:07:44;100314.10;;;18.89;94.36
58979;BME280;44763;50.464;30.612;2023-08-12T01:09:48;100314.34;;;18.88;94.05
58979;BME280;44763;50.464;30.612;2023-08-12T01:12:03;100314.95;;;18.85;93.95
58979;BME280;44763;50.464;30.612;2023-08-12T01:14:23;100315.67;;;18.83;93.88
58979;BME280;44763;50.464;30.612;2023-08-12T01:16:30;100315.96;;;18.80;93.74
58979;BME280;44763;50.464;30.612;2023-08-12T01:19:43;100312.03;;;18.62;95.00
58979;BME280;44763;50.464;30.612;2023-08-12T01:21:46;100315.70;;;18.62;94.74
58979;BME280;44763;50.464;30.612;2023-08-12T01:23:51;100318.30;;;18.62;94.57
58979;BME280;44763;50.464;30.612;2023-08-12T01:25:53;100317.91;;;18.59;94.51
58979;BME280;44763;50.464;30.612;2023-08-12T01:27:55;100318.27;;;18.60;94.45
58979;BME280;44763;50.464;30.612;2023-08-12T01:29:58;100315.05;;;18.59;94.43
58979;BME280;44763;50.464;30.612;2023-08-12T01:32:12;100312.61;;;18.55;94.52
58979;BME280;44763;50.464;30.612;2023-08-12T01:34:26;100307.23;;;18.56;94.40
58979;BME280;44763;50.464;30.612;2023-08-12T01:36:33;100306.63;;;18.56;94.26
58979;BME280;44763;50.464;30.612;2023-08-12T01:38:38;100304.67;;;18.55;94.25
58979;BME280;44763;50.464;30.612;2023-08-12T01:40:41;100307.58;;;18.52;94.47
58979;BME280;44763;50.464;30.612;2023-08-12T01:42:45;100307.35;;;18.48;94.94
58979;BME280;44763;50.464;30.612;2023-08-12T01:44:49;100303.42;;;18.46;94.92
58979;BME280;44763;50.464;30.612;2023-08-12T01:46:51;100305.42;;;18.40;95.00
58979;BME280;44763;50.464;30.612;2023-08-12T01:48:53;100304.53;;;18.39;95.25
58979;BME280;44763;50.464;30.612;2023-08-12T01:50:54;100300.14;;;18.35;95.24
58979;BME280;44763;50.464;30.612;2023-08-12T01:52:56;100301.77;;;18.32;94.77
58979;BME280;44763;50.464;30.612;2023-08-12T01:54:59;100302.36;;;18.30;94.48
58979;BME280;44763;50.464;30.612;2023-08-12T01:57:04;100301.97;;;18.26;94.23
58979;BME280;44763;50.464;30.612;2023-08-12T01:59:07;100306.07;;;18.23;93.96
58979;BME280;44763;50.464;30.612;2023-08-12T02:01:08;100307.90;;;18.21;93.77
58979;BME280;44763;50.464;30.612;2023-08-12T02:03:10;100312.63;;;18.19;93.53
58979;BME280;44763;50.464;30.612;2023-08-12T02:05:13;100312.88;;;18.19;93.46
58979;BME280;44763;50.464;30.612;2023-08-12T02:07:15;100312.16;;;18.16;93.40
58979;BME280;44763;50.464;30.612;2023-08-12T02:09:17;100310.23;;;18.13;93.48
58979;BME280;44763;50.464;30.612;2023-08-12T02:11:19;100315.58;;;18.08;93.47
58979;BME280;44763;50.464;30.612;2023-08-12T02:13:23;100316.02;;;18.04;93.82
58979;BME280;44763;50.464;30.612;2023-08-12T02:15:24;100315.70;;;18.04;93.75
58979;BME280;44763;50.464;30.612;2023-08-12T02:17:26;100319.86;;;18.04;93.78
58979;BME280;44763;50.464;30.612;2023-08-12T02:19:28;100323.36;;;18.03;93.86
58979;BME280;44763;50.464;30.612;2023-08-12T02:21:29;100322.50;;;18.01;94.06
58979;BME280;44763;50.464;30.612;2023-08-12T02:23:31;100327.98;;;17.97;94.36
58979;BME280;44763;50.464;30.612;2023-08-12T02:25:33;100320.52;;;17.94;94.70
58979;BME280;44763;50.464;30.612;2023-08-12T02:27:35;100314.80;;;17.89;94.79
58979;BME280;44763;50.464;30.612;2023-08-12T02:29:37;100323.61;;;17.93;94.91
58979;BME280;44763;50.464;30.612;2023-08-12T02:31:38;100318.91;;;17.93;95.28
58979;BME280;44763;50.464;30.612;2023-08-12T02:33:40;100316.20;;;17.92;95.38
58979;BME280;44763;50.464;30.612;2023-08-12T02:35:42;100320.90;;;17.91;95.66
58979;BME280;44763;50.464;30.612;2023-08-12T02:37:44;100321.20;;;17.88;96.12
58979;BME280;44763;50.464;30.612;2023-08-12T02:39:47;100320.15;;;17.87;96.73
58979;BME280;44763;50.464;30.612;2023-08-12T02:41:49;100323.16;;;17.86;97.08
58979;BME280;44763;50.464;30.612;2023-08-12T02:43:51;100320.84;;;17.86;97.09
58979;BME280;44763;50.464;30.612;2023-08-12T02:45:52;100321.64;;;17.86;97.38
58979;BME280;44763;50.464;30.612;2023-08-12T02:47:54;100320.24;;;17.86;97.55
58979;BME280;44763;50.464;30.612;2023-08-12T02:49:58;100318.34;;;17.88;97.66
58979;BME280;44763;50.464;30.612;2023-08-12T02:52:00;100320.08;;;17.88;97.43
58979;BME280;44763;50.464;30.612;2023-08-12T02:54:02;100319.98;;;17.89;97.78
58979;BME280;44763;50.464;30.612;2023-08-12T02:56:04;100322.12;;;17.90;97.84
58979;BME280;44763;50.464;30.612;2023-08-12T02:58:06;100322.34;;;17.91;97.67
58979;BME280;44763;50.464;30.612;2023-08-12T03:00:08;100321.92;;;17.92;97.62
58979;BME280;44763;50.464;30.612;2023-08-12T03:02:10;100314.45;;;17.90;97.62
58979;BME280;44763;50.464;30.612;2023-08-12T03:04:15;100312.98;;;17.89;97.56
58979;BME280;44763;50.464;30.612;2023-08-12T03:06:16;100315.14;;;17.87;97.54
58979;BME280;44763;50.464;30.612;2023-08-12T03:08:19;100314.11;;;17.83;98.21
58979;BME280;44763;50.464;30.612;2023-08-12T03:10:21;100318.13;;;17.84;98.14
58979;BME280;44763;50.464;30.612;2023-08-12T03:12:23;100320.98;;;17.84;98.10
58979;BME280;44763;50.464;30.612;2023-08-12T03:14:26;100321.04;;;17.82;98.14
58979;BME280;44763;50.464;30.612;2023-08-12T03:16:29;100322.19;;;17.80;98.50
58979;BME280;44763;50.464;30.612;2023-08-12T03:18:31;100322.41;;;17.78;98.68
58979;BME280;44763;50.464;30.612;2023-08-12T03:20:36;100321.47;;;17.77;99.08
58979;BME280;44763;50.464;30.612;2023-08-12T03:22:39;100322.55;;;17.77;99.00
58979;BME280;44763;50.464;30.612;2023-08-12T03:24:41;100320.41;;;17.76;99.27
58979;BME280;44763;50.464;30.612;2023-08-12T03:26:44;100322.79;;;17.76;99.61
58979;BME280;44763;50.464;30.612;2023-08-12T03:28:45;100324.11;;;17.74;99.81
58979;BME280;44763;50.464;30.612;2023-08-12T03:30:50;100324.41;;;17.76;99.97
58979;BME280;44763;50.464;30.612;2023-08-12T03:32:54;100326.36;;;17.79;99.96
58979;BME280;44763;50.464;30.612;2023-08-12T03:34:56;100326.71;;;17.80;99.91
58979;BME280;44763;50.464;30.612;2023-08-12T03:36:58;100324.86;;;17.82;100.00
58979;BME280;44763;50.464;30.612;2023-08-12T03:39:01;100329.17;;;17.95;100.00
58979;BME280;44763;50.464;30.612;2023-08-12T03:41:03;100325.70;;;18.17;99.51
58979;BME280;44763;50.464;30.612;2023-08-12T03:43:06;100323.88;;;18.52;98.04
58979;BME280;44763;50.464;30.612;2023-08-12T03:45:08;100324.68;;;18.86;95.97
58979;BME280;44763;50.464;30.612;2023-08-12T03:47:10;100325.17;;;19.11;93.80
58979;BME280;44763;50.464;30.612;2023-08-12T03:49:12;100318.71;;;19.28;91.87
58979;BME280;44763;50.464;30.612;2023-08-12T03:51:15;100317.35;;;19.37;90.26
58979;BME280;44763;50.464;30.612;2023-08-12T03:53:17;100323.79;;;19.37;89.42
58979;BME280;44763;50.464;30.612;2023-08-12T03:55:19;100322.81;;;19.26;88.96
58979;BME280;44763;50.464;30.612;2023-08-12T03:57:21;100324.13;;;19.13;89.41
58979;BME280;44763;50.464;30.612;2023-08-12T03:59:23;100327.31;;;19.00;90.39
58979;BME280;44763;50.464;30.612;2023-08-12T04:01:24;100324.77;;;18.97;91.25
58979;BME280;44763;50.464;30.612;2023-08-12T04:03:26;100317.02;;;18.99;91.27
58979;BME280;44763;50.464;30.612;2023-08-12T04:05:28;100325.89;;;19.19;90.32
58979;BME280;44763;50.464;30.612;2023-08-12T04:07:31;100324.88;;;19.35;89.56
58979;BME280;44763;50.464;30.612;2023-08-12T04:09:33;100324.58;;;19.58;88.44
58979;BME280;44763;50.464;30.612;2023-08-12T04:11:35;100323.44;;;19.86;86.47
58979;BME280;44763;50.464;30.612;2023-08-12T04:13:36;100322.34;;;20.20;84.68
58979;BME280;44763;50.464;30.612;2023-08-12T04:15:38;100319.16;;;20.55;82.34
58979;BME280;44763;50.464;30.612;2023-08-12T04:17:40;100315.49;;;20.94;80.29
58979;BME280;44763;50.464;30.612;2023-08-12T04:19:43;100315.42;;;21.27;78.42
58979;BME280;44763;50.464;30.612;2023-08-12T04:21:45;100313.70;;;21.64;77.01
58979;BME280;44763;50.464;30.612;2023-08-12T04:23:48;100314.64;;;22.00;73.21
58979;BME280;44763;50.464;30.612;2023-08-12T04:25:52;100322.17;;;22.23;72.04
58979;BME280;44763;50.464;30.612;2023-08-12T04:27:56;100325.59;;;22.31;70.22
58979;BME280;44763;50.464;30.612;2023-08-12T04:29:58;100323.36;;;22.30;70.25
58979;BME280;44763;50.464;30.612;2023-08-12T04:32:01;100326.08;;;22.32;70.26
58979;BME280;44763;50.464;30.612;2023-08-12T04:34:03;100326.05;;;22.38;69.84
58979;BME280;44763;50.464;30.612;2023-08-12T04:36:06;100325.74;;;22.48;69.76
58979;BME280;44763;50.464;30.612;2023-08-12T04:38:08;100320.73;;;22.67;68.64
58979;BME280;44763;50.464;30.612;2023-08-12T04:40:11;100321.83;;;22.87;68.00
58979;BME280;44763;50.464;30.612;2023-08-12T04:42:13;100317.95;;;23.07;66.76
58979;BME280;44763;50.464;30.612;2023-08-12T04:44:15;100321.32;;;23.25;65.45
58979;BME280;44763;50.464;30.612;2023-08-12T04:46:17;100323.89;;;23.24;65.16
58979;BME280;44763;50.464;30.612;2023-08-12T04:48:19;100327.96;;;23.13;65.70
58979;BME280;44763;50.464;30.612;2023-08-12T04:50:21;100324.95;;;23.00;65.58
58979;BME280;44763;50.464;30.612;2023-08-12T04:52:23;100323.52;;;22.90;66.31
58979;BME280;44763;50.464;30.612;2023-08-12T04:54:26;100323.14;;;22.83;66.65
58979;BME280;44763;50.464;30.612;2023-08-12T04:56:30;100322.27;;;22.75;66.70
58979;BME280;44763;50.464;30.612;2023-08-12T04:58:32;100319.75;;;22.66;66.98
58979;BME280;44763;50.464;30.612;2023-08-12T05:00:34;100322.11;;;22.53;67.33
58979;BME280;44763;50.464;30.612;2023-08-12T05:02:36;100326.62;;;22.34;68.15
58979;BME280;44763;50.464;30.612;2023-08-12T05:04:38;100330.82;;;22.15;68.79
58979;BME280;44763;50.464;30.612;2023-08-12T05:06:40;100322.28;;;21.98;69.47
58979;BME280;44763;50.464;30.612;2023-08-12T05:08:42;100330.77;;;22.04;69.93
58979;BME280;44763;50.464;30.612;2023-08-12T05:10:46;100327.14;;;22.06;69.76
58979;BME280;44763;50.464;30.612;2023-08-12T05:12:48;100329.06;;;22.11;69.81
58979;BME280;44763;50.464;30.612;2023-08-12T05:14:51;100326.03;;;22.13;69.47
58979;BME280;44763;50.464;30.612;2023-08-12T05:16:53;100326.41;;;22.01;69.94
58979;BME280;44763;50.464;30.612;2023-08-12T05:18:55;100323.88;;;21.82;70.34
58979;BME280;44763;50.464;30.612;2023-08-12T05:20:58;100316.23;;;21.54;71.03
58979;BME280;44763;50.464;30.612;2023-08-12T05:23:00;100326.63;;;21.38;72.35
58979;BME280;44763;50.464;30.612;2023-08-12T05:25:02;100326.20;;;21.23;73.01
58979;BME280;44763;50.464;30.612;2023-08-12T05:27:04;100327.35;;;21.05;73.72
58979;BME280;44763;50.464;30.612;2023-08-12T05:29:06;100322.62;;;20.86;75.08
58979;BME280;44763;50.464;30.612;2023-08-12T05:31:08;100327.64;;;20.65;76.43
58979;BME280;44763;50.464;30.612;2023-08-12T05:33:09;100330.17;;;20.53;77.41
58979;BME280;44763;50.464;30.612;2023-08-12T05:35:11;100332.06;;;20.41;79.10
58979;BME280;44763;50.464;30.612;2023-08-12T05:37:14;100333.59;;;20.43;79.05
58979;BME280;44763;50.464;30.612;2023-08-12T05:39:15;100326.26;;;20.36;79.27
58979;BME280;44763;50.464;30.612;2023-08-12T05:41:17;100330.23;;;20.29;79.91
58979;BME280;44763;50.464;30.612;2023-08-12T05:43:19;100327.45;;;20.21;80.37
58979;BME280;44763;50.464;30.612;2023-08-12T05:45:21;100330.30;;;20.12;80.48
58979;BME280;44763;50.464;30.612;2023-08-12T05:47:23;100332.23;;;19.93;81.80
58979;BME280;44763;50.464;30.612;2023-08-12T05:49:24;100328.02;;;19.81;82.29
58979;BME280;44763;50.464;30.612;2023-08-12T05:51:26;100329.70;;;19.78;82.86
58979;BME280;44763;50.464;30.612;2023-08-12T05:53:31;100330.09;;;19.69;83.75
58979;BME280;44763;50.464;30.612;2023-08-12T05:55:34;100328.50;;;19.56;84.83
58979;BME280;44763;50.464;30.612;2023-08-12T05:57:38;100331.01;;;19.54;85.45
58979;BME280;44763;50.464;30.612;2023-08-12T05:59:41;100336.48;;;19.62;85.31
58979;BME280;44763;50.464;30.612;2023-08-12T06:01:42;100332.84;;;19.75;84.61
58979;BME280;44763;50.464;30.612;2023-08-12T06:03:44;100332.61;;;19.78;85.07
58979;BME280;44763;50.464;30.612;2023-08-12T06:05:46;100328.97;;;19.92;84.74
58979;BME280;44763;50.464;30.612;2023-08-12T06:07:48;100326.07;;;20.07;84.14
58979;BME280;44763;50.464;30.612;2023-08-12T06:09:50;100325.61;;;20.26;83.19
58979;BME280;44763;50.464;30.612;2023-08-12T06:11:52;100319.98;;;20.56;82.41
58979;BME280;44763;50.464;30.612;2023-08-12T06:13:54;100315.19;;;20.92;80.41
58979;BME280;44763;50.464;30.612;2023-08-12T06:15:55;100319.56;;;21.21;78.35
58979;BME280;44763;50.464;30.612;2023-08-12T06:17:59;100321.41;;;21.50;76.44
58979;BME280;44763;50.464;30.612;2023-08-12T06:20:02;100320.00;;;21.75;75.54
58979;BME280;44763;50.464;30.612;2023-08-12T06:22:04;100320.11;;;22.13;73.79
58979;BME280;44763;50.464;30.612;2023-08-12T06:24:06;100319.48;;;22.50;72.04
58979;BME280;44763;50.464;30.612;2023-08-12T06:26:08;100301.94;;;22.78;69.61
58979;BME280;44763;50.464;30.612;2023-08-12T06:28:10;100308.17;;;23.12;67.78
58979;BME280;44763;50.464;30.612;2023-08-12T06:30:12;100306.25;;;23.33;66.61
58979;BME280;44763;50.464;30.612;2023-08-12T06:32:14;100308.98;;;23.53;65.62
58979;BME280;44763;50.464;30.612;2023-08-12T06:34:16;100304.64;;;23.72;64.39
58979;BME280;44763;50.464;30.612;2023-08-12T06:36:18;100306.75;;;23.84;64.06
58979;BME280;44763;50.464;30.612;2023-08-12T06:38:20;100307.50;;;24.01;62.75
58979;BME280;44763;50.464;30.612;2023-08-12T06:40:22;100301.05;;;24.21;62.05
58979;BME280;44763;50.464;30.612;2023-08-12T06:42:23;100301.66;;;24.28;61.25
58979;BME280;44763;50.464;30.612;2023-08-12T06:44:25;100300.48;;;24.24;61.40
58979;BME280;44763;50.464;30.612;2023-08-12T06:46:27;100300.02;;;24.21;61.41
58979;BME280;44763;50.464;30.612;2023-08-12T06:48:30;100304.86;;;24.10;61.45
58979;BME280;44763;50.464;30.612;2023-08-12T06:50:31;100305.27;;;23.87;62.46
58979;BME280;44763;50.464;30.612;2023-08-12T06:52:34;100302.30;;;23.50;63.95
58979;BME280;44763;50.464;30.612;2023-08-12T06:54:36;100304.97;;;23.23;65.07
58979;BME280;44763;50.464;30.612;2023-08-12T06:56:38;100308.65;;;23.03;66.45
58979;BME280;44763;50.464;30.612;2023-08-12T06:58:40;100311.95;;;23.00;66.52
58979;BME280;44763;50.464;30.612;2023-08-12T07:00:41;100310.69;;;22.89;67.45
58979;BME280;44763;50.464;30.612;2023-08-12T07:02:43;100307.77;;;22.87;67.82
58979;BME280;44763;50.464;30.612;2023-08-12T07:04:46;100314.11;;;22.73;68.30
58979;BME280;44763;50.464;30.612;2023-08-12T07:06:48;100313.18;;;22.64;68.56
58979;BME280;44763;50.464;30.612;2023-08-12T07:08:50;100314.94;;;22.53;69.23
58979;BME280;44763;50.464;30.612;2023-08-12T07:10:52;100318.19;;;22.42;70.06
58979;BME280;44763;50.464;30.612;2023-08-12T07:12:54;100311.38;;;22.37;70.77
58979;BME280;44763;50.464;30.612;2023-08-12T07:14:56;100310.11;;;22.33;71.09
58979;BME280;44763;50.464;30.612;2023-08-12T07:16:58;100313.17;;;22.24;71.61
58979;BME280;44763;50.464;30.612;2023-08-12T07:19:00;100312.31;;;22.17;72.37
58979;BME280;44763;50.464;30.612;2023-08-12T07:21:02;100313.70;;;22.13;72.10
58979;BME280;44763;50.464;30.612;2023-08-12T07:23:03;100312.55;;;22.10;72.53
58979;BME280;44763;50.464;30.612;2023-08-12T07:25:05;100318.91;;;22.07;72.93
58979;BME280;44763;50.464;30.612;2023-08-12T07:27:07;100314.95;;;22.08;72.78
58979;BME280;44763;50.464;30.612;2023-08-12T07:29:09;100317.55;;;22.10;72.68
58979;BME280;44763;50.464;30.612;2023-08-12T07:31:11;100321.41;;;22.11;72.71
58979;BME280;44763;50.464;30.612;2023-08-12T07:33:13;100320.73;;;22.16;72.72
58979;BME280;44763;50.464;30.612;2023-08-12T07:35:15;100322.39;;;22.24;72.53
58979;BME280;44763;50.464;30.612;2023-08-12T07:37:17;100312.76;;;22.29;72.52
58979;BME280;44763;50.464;30.612;2023-08-12T07:39:19;100315.81;;;22.52;72.46
58979;BME280;44763;50.464;30.612;2023-08-12T07:41:22;100312.20;;;22.76;71.49
58979;BME280;44763;50.464;30.612;2023-08-12T07:43:24;100307.11;;;22.98;69.41
58979;BME280;44763;50.464;30.612;2023-08-12T07:45:25;100303.83;;;23.13;68.44
58979;BME280;44763;50.464;30.612;2023-08-12T07:47:29;100306.53;;;23.29;68.46
58979;BME280;44763;50.464;30.612;2023-08-12T07:49:30;100305.09;;;23.46;67.93
58979;BME280;44763;50.464;30.612;2023-08-12T07:51:34;100299.02;;;23.61;67.07
58979;BME280;44763;50.464;30.612;2023-08-12T07:53:35;100302.58;;;23.73;67.13
58979;BME280;44763;50.464;30.612;2023-08-12T07:55:37;100299.33;;;23.88;66.15
58979;BME280;44763;50.464;30.612;2023-08-12T07:57:39;100300.80;;;24.02;65.02
58979;BME280;44763;50.464;30.612;2023-08-12T07:59:41;100303.41;;;24.15;63.24
58979;BME280;44763;50.464;30.612;2023-08-12T08:01:43;100305.48;;;24.15;62.22
58979;BME280;44763;50.464;30.612;2023-08-12T08:03:45;100304.96;;;24.09;62.41
58979;BME280;44763;50.464;30.612;2023-08-12T08:05:47;100302.94;;;24.02;62.34
58979;BME280;44763;50.464;30.612;2023-08-12T08:07:50;100298.52;;;23.92;61.61
58979;BME280;44763;50.464;30.612;2023-08-12T08:09:52;100298.81;;;23.81;61.10
58979;BME280;44763;50.464;30.612;2023-08-12T08:11:54;100304.37;;;23.73;61.31
58979;BME280;44763;50.464;30.612;2023-08-12T08:13:58;100303.08;;;23.67;61.94
58979;BME280;44763;50.464;30.612;2023-08-12T08:16:00;100298.95;;;23.65;62.64
58979;BME280;44763;50.464;30.612;2023-08-12T08:18:02;100303.41;;;23.65;62.13
58979;BME280;44763;50.464;30.612;2023-08-12T08:20:07;100308.58;;;23.66;62.39
58979;BME280;44763;50.464;30.612;2023-08-12T08:22:09;100309.39;;;23.64;62.68
58979;BME280;44763;50.464;30.612;2023-08-12T08:24:11;100308.37;;;23.60;63.40
58979;BME280;44763;50.464;30.612;2023-08-12T08:26:14;100305.71;;;23.60;63.64
58979;BME280;44763;50.464;30.612;2023-08-12T08:28:17;100299.92;;;23.62;63.80
58979;BME280;44763;50.464;30.612;2023-08-12T08:30:19;100305.38;;;23.58;63.10
58979;BME280;44763;50.464;30.612;2023-08-12T08:32:20;100307.90;;;23.52;63.39
58979;BME280;44763;50.464;30.612;2023-08-12T08:34:22;100307.80;;;23.50;63.53
58979;BME280;44763;50.464;30.612;2023-08-12T08:36:24;100303.90;;;23.50;63.39
58979;BME280;44763;50.464;30.612;2023-08-12T08:38:26;100303.25;;;23.44;63.58
58979;BME280;44763;50.464;30.612;2023-08-12T08:40:27;100301.55;;;23.40;63.68
58979;BME280;44763;50.464;30.612;2023-08-12T08:42:30;100301.40;;;23.42;64.15
58979;BME280;44763;50.464;30.612;2023-08-12T08:44:33;100301.29;;;23.41;64.33
58979;BME280;44763;50.464;30.612;2023-08-12T08:46:35;100298.89;;;23.42;64.44
58979;BME280;44763;50.464;30.612;2023-08-12T08:48:37;100297.64;;;23.41;63.79
58979;BME280;44763;50.464;30.612;2023-08-12T08:50:40;100298.58;;;23.37;64.74
58979;BME280;44763;50.464;30.612;2023-08-12T08:52:43;100295.41;;;23.40;64.81
58979;BME280;44763;50.464;30.612;2023-08-12T08:54:46;100298.72;;;23.43;65.02
58979;BME280;44763;50.464;30.612;2023-08-12T08:56:49;100298.55;;;23.49;64.86
58979;BME280;44763;50.464;30.612;2023-08-12T08:59:02;100300.83;;;23.54;64.39
58979;BME280;44763;50.464;30.612;2023-08-12T09:01:06;100300.55;;;23.53;64.25
58979;BME280;44763;50.464;30.612;2023-08-12T09:03:09;100296.96;;;23.53;64.31
58979;BME280;44763;50.464;30.612;2023-08-12T09:05:13;100298.16;;;23.53;64.41
58979;BME280;44763;50.464;30.612;2023-08-12T09:07:16;100301.58;;;23.54;64.30
58979;BME280;44763;50.464;30.612;2023-08-12T09:09:19;100298.70;;;23.59;64.32
58979;BME280;44763;50.464;30.612;2023-08-12T09:11:22;100302.75;;;23.67;64.29
58979;BME280;44763;50.464;30.612;2023-08-12T09:13:25;100300.61;;;23.72;63.72
58979;BME280;44763;50.464;30.612;2023-08-12T09:15:27;100296.78;;;23.75;63.87
58979;BME280;44763;50.464;30.612;2023-08-12T09:17:30;100290.06;;;23.71;64.17
58979;BME280;44763;50.464;30.612;2023-08-12T09:19:34;100292.61;;;23.81;63.69
58979;BME280;44763;50.464;30.612;2023-08-12T09:21:36;100295.81;;;23.83;63.63
58979;BME280;44763;50.464;30.612;2023-08-12T09:23:39;100297.27;;;23.89;62.99
58979;BME280;44763;50.464;30.612;2023-08-12T09:25:42;100291.67;;;23.97;62.76
58979;BME280;44763;50.464;30.612;2023-08-12T09:27:46;100292.02;;;23.97;61.97
58979;BME280;44763;50.464;30.612;2023-08-12T09:29:48;100289.56;;;23.97;61.82
58979;BME280;44763;50.464;30.612;2023-08-12T09:31:50;100292.68;;;23.92;62.19
58979;BME280;44763;50.464;30.612;2023-08-12T09:33:52;100294.66;;;23.92;62.92
58979;BME280;44763;50.464;30.612;2023-08-12T09:35:55;100297.02;;;23.97;62.44
58979;BME280;44763;50.464;30.612;2023-08-12T09:38:00;100297.75;;;24.03;62.25
58979;BME280;44763;50.464;30.612;2023-08-12T09:40:03;100297.17;;;24.10;62.81
58979;BME280;44763;50.464;30.612;2023-08-12T09:42:07;100299.59;;;24.18;61.55
58979;BME280;44763;50.464;30.612;2023-08-12T09:44:09;100296.89;;;24.24;61.06
58979;BME280;44763;50.464;30.612;2023-08-12T09:46:12;100296.70;;;24.29;60.15
58979;BME280;44763;50.464;30.612;2023-08-12T09:48:16;100300.14;;;24.37;59.12
58979;BME280;44763;50.464;30.612;2023-08-12T09:50:21;100302.97;;;24.49;58.12
58979;BME280;44763;50.464;30.612;2023-08-12T09:52:23;100301.26;;;24.55;57.90
58979;BME280;44763;50.464;30.612;2023-08-12T09:54:31;100300.42;;;24.66;56.30
58979;BME280;44763;50.464;30.612;2023-08-12T09:56:36;100295.52;;;24.81;54.49
58979;BME280;44763;50.464;30.612;2023-08-12T09:58:39;100291.40;;;24.83;53.25
58979;BME280;44763;50.464;30.612;2023-08-12T10:00:42;100298.91;;;24.86;52.76
58979;BME280;44763;50.464;30.612;2023-08-12T10:02:46;100305.83;;;24.87;52.99
58979;BME280;44763;50.464;30.612;2023-08-12T10:04:50;100302.83;;;24.93;53.00
58979;BME280;44763;50.464;30.612;2023-08-12T10:06:55;100300.29;;;25.04;52.04
58979;BME280;44763;50.464;30.612;2023-08-12T10:08:57;100300.84;;;25.16;51.25
58979;BME280;44763;50.464;30.612;2023-08-12T10:10:59;100310.77;;;25.25;50.36
58979;BME280;44763;50.464;30.612;2023-08-12T10:13:14;100316.59;;;25.33;50.65
58979;BME280;44763;50.464;30.612;2023-08-12T10:15:16;100312.58;;;25.36;51.04
58979;BME280;44763;50.464;30.612;2023-08-12T10:17:19;100311.91;;;25.38;50.91
58979;BME280;44763;50.464;30.612;2023-08-12T10:19:44;100314.70;;;25.42;49.05
58979;BME280;44763;50.464;30.612;2023-08-12T10:21:49;100311.15;;;25.42;48.55
58979;BME280;44763;50.464;30.612;2023-08-12T10:23:52;100313.61;;;25.41;48.22
58979;BME280;44763;50.464;30.612;2023-08-12T10:25:55;100313.65;;;25.38;47.65
58979;BME280;44763;50.464;30.612;2023-08-12T10:27:57;100313.44;;;25.30;47.88
58979;BME280;44763;50.464;30.612;2023-08-12T10:29:59;100318.63;;;25.24;48.20
58979;BME280;44763;50.464;30.612;2023-08-12T10:32:01;100315.42;;;25.18;48.95
58979;BME280;44763;50.464;30.612;2023-08-12T10:34:04;100306.82;;;25.18;49.37